createdAt,value
2022-08-24T00:00:30.230Z,93.38
2022-08-24T00:01:30.209Z,94.35
2022-08-24T00:02:30.424Z,95.55
2022-08-24T00:03:34.592Z,95.94
2022-08-24T00:04:32.125Z,94.11
2022-08-24T00:05:30.138Z,93.53
2022-08-24T00:06:30.132Z,94.78
2022-08-24T00:07:30.108Z,92.71
2022-08-24T00:08:30.088Z,91.66
2022-08-24T00:09:30.072Z,93.00
2022-08-24T00:10:30.052Z,92.13
2022-08-24T00:11:30.055Z,92.61
2022-08-24T00:12:30.019Z,91.46
2022-08-24T00:13:32.598Z,91.89
2022-08-24T00:14:29.984Z,90.55
2022-08-24T00:15:29.967Z,91.41
2022-08-24T00:16:30.037Z,90.06
2022-08-24T00:17:29.935Z,91.13
2022-08-24T00:18:29.920Z,90.35
2022-08-24T00:19:29.901Z,90.16
2022-08-24T00:20:29.885Z,92.28
2022-08-24T00:21:29.872Z,92.57
2022-08-24T00:22:29.858Z,93.87
2022-08-24T00:23:29.828Z,92.43
2022-08-24T00:24:29.819Z,93.68
2022-08-24T00:25:29.798Z,93.10
2022-08-24T00:26:29.785Z,93.68
2022-08-24T00:27:29.764Z,95.21
2022-08-24T00:28:29.745Z,94.92
2022-08-24T00:29:29.727Z,94.83
2022-08-24T00:30:29.707Z,93.58
2022-08-24T00:31:29.733Z,95.02
2022-08-24T00:32:29.677Z,94.30
2022-08-24T00:33:29.660Z,94.06
2022-08-24T00:34:29.646Z,95.94
2022-08-24T00:35:29.623Z,95.45
2022-08-24T00:36:29.613Z,95.26
2022-08-24T00:37:29.593Z,96.13
2022-08-24T00:38:29.793Z,95.45
2022-08-24T00:39:29.551Z,94.98
2022-08-24T00:40:29.611Z,94.30
2022-08-24T00:41:29.517Z,94.11
2022-08-24T00:42:29.509Z,94.30
2022-08-24T00:43:29.481Z,94.49
2022-08-24T00:44:29.462Z,94.98
2022-08-24T00:45:29.515Z,94.78
2022-08-24T00:46:29.445Z,93.24
2022-08-24T00:47:29.410Z,93.82
2022-08-24T00:48:30.132Z,93.34
2022-08-24T00:49:29.378Z,95.65
2022-08-24T00:50:29.358Z,93.34
2022-08-24T00:51:29.342Z,93.00
2022-08-24T00:52:29.327Z,92.86
2022-08-24T00:53:29.313Z,93.58
2022-08-24T00:54:29.293Z,92.81
2022-08-24T00:55:29.267Z,91.94
2022-08-24T00:56:29.253Z,92.81
2022-08-24T00:57:29.234Z,92.71
2022-08-24T00:58:29.213Z,92.23
2022-08-24T00:59:29.201Z,92.91
2022-08-24T01:00:29.183Z,92.71
2022-08-24T01:01:29.205Z,92.23
2022-08-24T01:02:29.262Z,91.94
2022-08-24T01:03:29.135Z,91.94
2022-08-24T01:04:29.127Z,91.27
2022-08-24T01:05:29.096Z,91.17
2022-08-24T01:06:29.074Z,91.27
2022-08-24T01:07:29.060Z,90.45
2022-08-24T01:08:29.038Z,90.35
2022-08-24T01:09:29.023Z,90.16
2022-08-24T01:10:29.003Z,89.87
2022-08-24T01:11:30.891Z,90.16
2022-08-24T01:12:28.976Z,90.93
2022-08-24T01:13:28.956Z,90.35
2022-08-24T01:14:28.936Z,89.87
2022-08-24T01:15:28.925Z,89.49
2022-08-24T01:16:28.952Z,90.30
2022-08-24T01:17:28.884Z,89.43
2022-08-24T01:18:28.865Z,89.53
2022-08-24T01:19:28.848Z,89.29
2022-08-24T01:20:28.829Z,89.43
2022-08-24T01:21:28.816Z,89.92
2022-08-24T01:22:28.801Z,90.40
2022-08-24T01:23:30.170Z,90.20
2022-08-24T01:24:28.770Z,89.15
2022-08-24T01:25:28.745Z,89.43
2022-08-24T01:26:28.753Z,90.20
2022-08-24T01:27:28.709Z,90.30
2022-08-24T01:28:28.687Z,91.03
2022-08-24T01:29:28.673Z,90.64
2022-08-24T01:30:30.581Z,90.64
2022-08-24T01:31:28.666Z,90.83
2022-08-24T01:32:28.623Z,91.13
2022-08-24T01:33:28.605Z,91.22
2022-08-24T01:34:28.586Z,91.13
2022-08-24T01:35:28.571Z,91.51
2022-08-24T01:36:28.813Z,91.80
2022-08-24T01:37:28.537Z,92.38
2022-08-24T01:38:28.515Z,92.38
2022-08-24T01:39:28.497Z,91.22
2022-08-24T01:40:28.539Z,91.51
2022-08-24T01:41:29.370Z,91.22
2022-08-24T01:42:28.449Z,91.51
2022-08-24T01:43:28.434Z,91.31
2022-08-24T01:44:28.433Z,91.51
2022-08-24T01:45:28.391Z,91.13
2022-08-24T01:46:28.460Z,90.73
2022-08-24T01:47:28.368Z,90.64
2022-08-24T01:48:28.338Z,90.93
2022-08-24T01:49:28.325Z,91.80
2022-08-24T01:50:28.307Z,91.41
2022-08-24T01:51:28.292Z,91.41
2022-08-24T01:52:43.456Z,90.69
2022-08-24T01:53:28.255Z,90.50
2022-08-24T01:54:28.238Z,90.83
2022-08-24T01:55:28.224Z,91.13
2022-08-24T01:56:28.201Z,90.26
2022-08-24T01:57:28.185Z,90.55
2022-08-24T01:58:28.172Z,89.72
2022-08-24T01:59:28.149Z,90.20
2022-08-24T02:00:28.141Z,90.01
2022-08-24T02:01:28.151Z,89.34
2022-08-24T02:02:28.141Z,89.63
2022-08-24T02:03:30.602Z,89.43
2022-08-24T02:04:28.063Z,89.82
2022-08-24T02:05:28.048Z,89.53
2022-08-24T02:06:28.029Z,89.92
2022-08-24T02:07:28.035Z,90.11
2022-08-24T02:08:27.991Z,90.20
2022-08-24T02:09:27.976Z,90.20
2022-08-24T02:10:27.962Z,90.88
2022-08-24T02:11:27.942Z,90.88
2022-08-24T02:12:27.928Z,91.03
2022-08-24T02:13:27.905Z,90.97
2022-08-24T02:14:30.644Z,90.59
2022-08-24T02:15:27.870Z,91.51
2022-08-24T02:16:27.930Z,91.22
2022-08-24T02:17:27.841Z,91.22
2022-08-24T02:18:27.818Z,91.22
2022-08-24T02:19:27.801Z,91.22
2022-08-24T02:20:27.793Z,91.51
2022-08-24T02:21:27.777Z,91.41
2022-08-24T02:22:27.756Z,92.28
2022-08-24T02:23:27.732Z,91.89
2022-08-24T02:24:27.718Z,92.28
2022-08-24T02:25:27.700Z,92.76
2022-08-24T02:26:28.426Z,92.08
2022-08-24T02:27:27.662Z,92.28
2022-08-24T02:28:27.644Z,92.47
2022-08-24T02:29:27.628Z,92.95
2022-08-24T02:30:27.613Z,92.47
2022-08-24T02:31:27.646Z,93.10
2022-08-24T02:32:27.577Z,93.00
2022-08-24T02:33:27.567Z,94.64
2022-08-24T02:34:27.550Z,93.96
2022-08-24T02:35:27.528Z,93.77
2022-08-24T02:36:27.506Z,93.96
2022-08-24T02:37:27.487Z,94.92
2022-08-24T02:38:27.470Z,95.21
2022-08-24T02:39:27.451Z,94.64
2022-08-24T02:40:27.533Z,95.02
2022-08-24T02:41:27.420Z,95.02
2022-08-24T02:42:27.410Z,95.02
2022-08-24T02:43:27.382Z,94.15
2022-08-24T02:44:27.381Z,95.79
2022-08-24T02:45:27.353Z,95.21
2022-08-24T02:46:27.478Z,95.50
2022-08-24T02:47:38.177Z,95.40
2022-08-24T02:48:27.296Z,94.83
2022-08-24T02:49:27.281Z,94.25
2022-08-24T02:50:27.262Z,95.79
2022-08-24T02:51:27.251Z,95.98
2022-08-24T02:52:27.227Z,95.60
2022-08-24T02:53:27.211Z,96.42
2022-08-24T02:54:27.190Z,96.70
2022-08-24T02:55:27.177Z,97.19
2022-08-24T02:56:27.156Z,97.96
2022-08-24T02:57:27.152Z,98.39
2022-08-24T02:58:27.118Z,99.44
2022-08-24T02:59:27.133Z,99.99
2022-08-24T03:00:27.083Z,99.99
2022-08-24T03:01:27.072Z,99.99
2022-08-24T03:02:27.165Z,99.99
2022-08-24T03:03:27.034Z,99.87
2022-08-24T03:04:27.010Z,99.99
2022-08-24T03:05:26.993Z,99.99
2022-08-24T03:06:26.996Z,99.99
2022-08-24T03:07:26.980Z,99.99
2022-08-24T03:08:26.940Z,99.99
2022-08-24T03:09:28.868Z,99.99
2022-08-24T03:10:26.907Z,99.99
2022-08-24T03:11:28.286Z,99.99
2022-08-24T03:12:26.869Z,99.99
2022-08-24T03:13:26.858Z,99.99
2022-08-24T03:14:26.834Z,99.99
2022-08-24T03:15:26.850Z,99.99
2022-08-24T03:16:26.803Z,99.99
2022-08-24T03:17:26.781Z,99.99
2022-08-24T03:18:26.759Z,99.99
2022-08-24T03:19:26.736Z,99.99
2022-08-24T03:20:26.721Z,99.99
2022-08-24T03:21:26.700Z,99.99
2022-08-24T03:22:26.699Z,99.99
2022-08-24T03:23:27.080Z,99.99
2022-08-24T03:24:26.646Z,99.99
2022-08-24T03:25:26.630Z,99.99
2022-08-24T03:26:26.615Z,99.99
2022-08-24T03:27:26.590Z,99.99
2022-08-24T03:28:26.572Z,99.99
2022-08-24T03:29:26.553Z,99.99
2022-08-24T03:30:26.597Z,99.99
2022-08-24T03:31:26.521Z,99.99
2022-08-24T03:32:26.499Z,99.99
2022-08-24T03:33:26.483Z,99.99
2022-08-24T03:34:26.469Z,99.99
2022-08-24T03:35:26.445Z,99.99
2022-08-24T03:36:26.427Z,99.99
2022-08-24T03:37:26.420Z,99.99
2022-08-24T03:38:26.382Z,99.99
2022-08-24T03:39:26.365Z,99.99
2022-08-24T03:40:26.383Z,99.99
2022-08-24T03:41:26.325Z,99.99
2022-08-24T03:42:26.308Z,99.99
2022-08-24T03:43:26.288Z,99.99
2022-08-24T03:44:26.282Z,99.99
2022-08-24T03:45:26.261Z,99.99
2022-08-24T03:46:26.233Z,99.99
2022-08-24T03:47:26.238Z,99.99
2022-08-24T03:48:26.202Z,99.99
2022-08-24T03:49:26.186Z,99.99
2022-08-24T03:50:26.159Z,99.99
2022-08-24T03:51:26.135Z,99.99
2022-08-24T03:52:26.125Z,99.99
2022-08-24T03:53:26.099Z,99.99
2022-08-24T03:54:26.082Z,99.99
2022-08-24T03:55:26.059Z,99.99
2022-08-24T03:56:26.049Z,99.99
2022-08-24T03:57:26.022Z,99.99
2022-08-24T03:58:26.003Z,99.99
2022-08-24T03:59:25.980Z,99.99
2022-08-24T04:00:25.982Z,99.99
2022-08-24T04:01:25.990Z,99.99
2022-08-24T04:02:29.092Z,99.99
2022-08-24T04:03:25.914Z,99.99
2022-08-24T04:04:25.909Z,99.99
2022-08-24T04:05:25.870Z,99.99
2022-08-24T04:06:25.849Z,99.99
2022-08-24T04:07:25.823Z,99.99
2022-08-24T04:08:25.806Z,99.99
2022-08-24T04:09:25.786Z,99.99
2022-08-24T04:10:25.785Z,99.99
2022-08-24T04:11:25.749Z,99.99
2022-08-24T04:12:25.731Z,99.99
2022-08-24T04:13:25.717Z,99.99
2022-08-24T04:14:27.458Z,99.99
2022-08-24T04:15:25.672Z,99.99
2022-08-24T04:16:25.700Z,99.99
2022-08-24T04:17:25.638Z,99.99
2022-08-24T04:18:28.640Z,99.99
2022-08-24T04:19:25.592Z,99.99
2022-08-24T04:20:25.569Z,99.99
2022-08-24T04:21:25.549Z,99.99
2022-08-24T04:22:25.529Z,99.99
2022-08-24T04:23:29.031Z,99.99
2022-08-24T04:24:25.541Z,99.99
2022-08-24T04:25:25.473Z,99.99
2022-08-24T04:26:43.346Z,99.99
2022-08-24T04:27:25.446Z,99.99
2022-08-24T04:28:25.410Z,99.99
2022-08-24T04:29:25.395Z,99.99
2022-08-24T04:30:25.374Z,99.99
2022-08-24T04:31:25.434Z,99.99
2022-08-24T04:32:25.339Z,99.99
2022-08-24T04:33:25.315Z,99.99
2022-08-24T04:34:25.295Z,99.99
2022-08-24T04:35:25.281Z,99.99
2022-08-24T04:36:25.259Z,99.99
2022-08-24T04:37:28.036Z,99.99
2022-08-24T04:38:25.218Z,99.99
2022-08-24T04:39:25.200Z,99.99
2022-08-24T04:40:25.342Z,99.99
2022-08-24T04:41:31.068Z,99.99
2022-08-24T04:42:25.138Z,99.99
2022-08-24T04:43:25.121Z,99.99
2022-08-24T04:44:25.104Z,99.99
2022-08-24T04:45:25.151Z,99.99
2022-08-24T04:46:25.060Z,99.99
2022-08-24T04:47:25.042Z,99.99
2022-08-24T04:48:25.022Z,99.99
2022-08-24T04:49:25.009Z,99.99
2022-08-24T04:50:24.983Z,99.99
2022-08-24T04:51:24.966Z,99.99
2022-08-24T04:52:24.949Z,99.99
2022-08-24T04:53:24.947Z,99.99
2022-08-24T04:54:24.903Z,99.99
2022-08-24T04:55:24.885Z,99.99
2022-08-24T04:56:24.878Z,99.99
2022-08-24T04:57:24.850Z,99.99
2022-08-24T04:58:24.830Z,99.99
2022-08-24T04:59:24.810Z,99.99
2022-08-24T05:00:24.795Z,99.99
2022-08-24T05:01:24.774Z,99.99
2022-08-24T05:02:24.830Z,99.99
2022-08-24T05:03:24.733Z,99.99
2022-08-24T05:04:24.718Z,99.99
2022-08-24T05:05:24.772Z,99.99
2022-08-24T05:06:24.800Z,99.99
2022-08-24T05:07:24.677Z,99.99
2022-08-24T05:09:24.646Z,99.99
2022-08-24T05:10:24.639Z,99.99
2022-08-24T05:11:24.587Z,99.99
2022-08-24T05:12:24.567Z,99.99
2022-08-24T05:13:24.543Z,99.99
2022-08-24T05:14:28.404Z,99.99
2022-08-24T05:15:24.542Z,99.99
2022-08-24T05:16:24.521Z,99.99
2022-08-24T05:17:24.492Z,99.99
2022-08-24T05:18:24.449Z,99.99
2022-08-24T05:19:24.432Z,99.99
2022-08-24T05:20:24.419Z,99.99
2022-08-24T05:21:24.390Z,99.99
2022-08-24T05:22:24.377Z,99.99
2022-08-24T05:23:24.355Z,99.99
2022-08-24T05:24:24.346Z,99.99
2022-08-24T05:25:24.329Z,99.99
2022-08-24T05:26:24.305Z,99.99
2022-08-24T05:27:25.148Z,99.99
2022-08-24T05:28:24.280Z,99.99
2022-08-24T05:29:24.271Z,99.99
2022-08-24T05:30:24.257Z,99.99
2022-08-24T05:31:24.281Z,99.99
2022-08-24T05:32:24.192Z,99.99
2022-08-24T05:33:24.172Z,99.99
2022-08-24T05:34:24.162Z,99.99
2022-08-24T05:35:24.135Z,99.99
2022-08-24T05:36:24.128Z,99.99
2022-08-24T05:37:24.098Z,99.99
2022-08-24T05:38:24.083Z,99.99
2022-08-24T05:39:24.068Z,99.99
2022-08-24T05:40:24.102Z,99.99
2022-08-24T05:41:24.028Z,99.99
2022-08-24T05:42:24.024Z,99.99
2022-08-24T05:43:24.012Z,99.99
2022-08-24T05:44:26.852Z,99.99
2022-08-24T05:45:23.960Z,99.99
2022-08-24T05:46:23.993Z,99.99
2022-08-24T05:47:23.925Z,99.35
2022-08-24T05:49:23.885Z,98.05
2022-08-24T05:50:23.891Z,98.44
2022-08-24T05:51:23.853Z,97.86
2022-08-24T05:52:23.888Z,96.89
2022-08-24T05:53:23.817Z,97.09
2022-08-24T05:54:23.801Z,96.85
2022-08-24T05:55:23.786Z,96.56
2022-08-24T05:56:23.797Z,96.75
2022-08-24T05:57:23.753Z,96.66
2022-08-24T05:58:30.883Z,96.66
2022-08-24T05:59:23.723Z,96.46
2022-08-24T06:00:23.705Z,97.04
2022-08-24T06:01:23.720Z,96.85
2022-08-24T06:02:23.889Z,95.69
2022-08-24T06:03:23.656Z,95.21
2022-08-24T06:04:23.639Z,95.11
2022-08-24T06:05:23.637Z,95.89
2022-08-24T06:06:23.616Z,95.79
2022-08-24T06:07:23.590Z,95.26
2022-08-24T06:08:23.580Z,94.39
2022-08-24T06:09:23.554Z,95.36
2022-08-24T06:10:37.288Z,94.78
2022-08-24T06:11:23.541Z,94.48
2022-08-24T06:12:23.532Z,93.91
2022-08-24T06:13:23.494Z,94.58
2022-08-24T06:14:26.904Z,93.52
2022-08-24T06:15:23.465Z,93.23
2022-08-24T06:16:23.489Z,94.00
2022-08-24T06:17:23.590Z,93.28
2022-08-24T06:18:23.414Z,93.95
2022-08-24T06:19:23.403Z,93.76
2022-08-24T06:20:23.405Z,93.37
2022-08-24T06:21:23.382Z,92.50
2022-08-24T06:22:23.368Z,94.24
2022-08-24T06:23:23.350Z,93.28
2022-08-24T06:24:23.318Z,92.22
2022-08-24T06:25:23.305Z,92.80
2022-08-24T06:26:23.499Z,93.57
2022-08-24T06:27:23.275Z,92.70
2022-08-24T06:28:23.273Z,92.80
2022-08-24T06:29:23.240Z,93.66
2022-08-24T06:30:23.307Z,92.89
2022-08-24T06:31:23.253Z,93.23
2022-08-24T06:32:23.221Z,92.80
2022-08-24T06:33:23.208Z,95.11
2022-08-24T06:34:23.162Z,93.76
2022-08-24T06:35:23.150Z,93.18
2022-08-24T06:36:23.174Z,93.32
2022-08-24T06:37:23.138Z,92.74
2022-08-24T06:38:23.107Z,93.08
2022-08-24T06:39:23.094Z,93.23
2022-08-24T06:40:23.132Z,93.23
2022-08-24T06:41:23.068Z,92.26
2022-08-24T06:42:23.082Z,93.23
2022-08-24T06:43:23.138Z,92.65
2022-08-24T06:44:23.015Z,92.36
2022-08-24T06:45:23.013Z,93.13
2022-08-24T06:46:25.644Z,92.46
2022-08-24T06:47:23.018Z,92.55
2022-08-24T06:48:22.990Z,92.94
2022-08-24T06:49:22.961Z,92.16
2022-08-24T06:50:24.491Z,92.94
2022-08-24T06:51:22.986Z,92.94
2022-08-24T06:52:22.892Z,92.74
2022-08-24T06:53:22.872Z,92.55
2022-08-24T06:54:22.860Z,93.42
2022-08-24T06:55:22.855Z,93.42
2022-08-24T06:56:22.857Z,92.94
2022-08-24T06:57:22.812Z,93.32
2022-08-24T06:58:22.806Z,93.90
2022-08-24T06:59:22.793Z,93.32
2022-08-24T07:00:22.772Z,91.88
2022-08-24T07:01:22.850Z,93.76
2022-08-24T07:02:22.760Z,93.76
2022-08-24T07:03:22.763Z,93.47
2022-08-24T07:04:27.524Z,91.53
2022-08-24T07:05:22.727Z,92.41
2022-08-24T07:06:22.709Z,94.04
2022-08-24T07:07:22.664Z,92.07
2022-08-24T07:08:22.665Z,91.63
2022-08-24T07:09:22.636Z,91.92
2022-08-24T07:10:23.111Z,92.55
2022-08-24T07:11:22.608Z,93.13
2022-08-24T07:12:22.623Z,91.19
2022-08-24T07:13:22.585Z,89.45
2022-08-24T07:14:22.572Z,89.26
2022-08-24T07:15:22.549Z,89.59
2022-08-24T07:16:22.600Z,89.59
2022-08-24T07:17:22.527Z,89.11
2022-08-24T07:18:22.502Z,88.53
2022-08-24T07:19:22.492Z,88.48
2022-08-24T07:20:22.488Z,88.29
2022-08-24T07:21:22.509Z,87.61
2022-08-24T07:22:22.445Z,89.11
2022-08-24T07:23:22.455Z,89.39
2022-08-24T07:24:22.420Z,88.43
2022-08-24T07:25:22.401Z,88.47
2022-08-24T07:26:22.564Z,88.18
2022-08-24T07:27:22.397Z,87.02
2022-08-24T07:28:27.671Z,87.41
2022-08-24T07:29:46.312Z,85.61
2022-08-24T07:30:27.969Z,84.93
2022-08-24T07:31:22.387Z,85.36
2022-08-24T07:32:22.311Z,84.68
2022-08-24T07:33:22.331Z,84.43
2022-08-24T07:34:22.287Z,85.69
2022-08-24T07:35:22.310Z,87.68
2022-08-24T07:36:22.974Z,84.47
2022-08-24T07:37:22.260Z,84.42
2022-08-24T07:38:22.256Z,83.06
2022-08-24T07:39:22.244Z,83.22
2022-08-24T07:40:22.279Z,83.45
2022-08-24T07:42:31.139Z,80.05
2022-08-24T07:43:22.214Z,79.86
2022-08-24T07:44:22.269Z,80.05
2022-08-24T07:45:22.169Z,80.29
2022-08-24T07:46:22.172Z,82.71
2022-08-24T07:47:37.472Z,81.10
2022-08-24T07:48:22.134Z,80.71
2022-08-24T07:49:36.115Z,80.07
2022-08-24T07:50:22.194Z,81.14
2022-08-24T07:51:22.150Z,81.18
2022-08-24T07:52:22.077Z,78.07
2022-08-24T07:53:27.961Z,77.39
2022-08-24T07:54:22.046Z,79.14
2022-08-24T07:55:22.039Z,77.68
2022-08-24T07:56:22.028Z,79.86
2022-08-24T07:57:22.023Z,78.23
2022-08-24T07:58:22.002Z,80.66
2022-08-24T07:59:21.994Z,79.68
2022-08-24T08:00:22.027Z,78.91
2022-08-24T08:01:22.062Z,78.52
2022-08-24T08:02:22.018Z,79.63
2022-08-24T08:03:21.955Z,78.75
2022-08-24T08:04:22.013Z,79.24
2022-08-24T08:05:21.945Z,80.27
2022-08-24T08:06:21.925Z,79.33
2022-08-24T08:07:21.909Z,77.15
2022-08-24T08:08:21.893Z,78.75
2022-08-24T08:09:21.883Z,76.87
2022-08-24T08:10:21.879Z,78.23
2022-08-24T08:11:21.863Z,76.90
2022-08-24T08:12:21.883Z,75.45
2022-08-24T08:13:21.856Z,76.81
2022-08-24T08:14:21.854Z,77.00
2022-08-24T08:15:21.821Z,77.04
2022-08-24T08:16:21.909Z,76.45
2022-08-24T08:17:21.792Z,76.42
2022-08-24T08:18:21.782Z,78.75
2022-08-24T08:19:21.798Z,76.71
2022-08-24T08:20:21.806Z,75.78
2022-08-24T08:21:21.761Z,77.08
2022-08-24T08:22:21.747Z,76.92
2022-08-24T08:23:21.734Z,73.84
2022-08-24T08:24:21.737Z,73.72
2022-08-24T08:25:21.719Z,72.39
2022-08-24T08:26:21.716Z,73.27
2022-08-24T08:27:21.692Z,71.06
2022-08-24T08:28:25.828Z,69.20
2022-08-24T08:29:21.695Z,70.47
2022-08-24T08:30:21.687Z,71.94
2022-08-24T08:31:21.675Z,72.39
2022-08-24T08:32:21.644Z,72.97
2022-08-24T08:33:21.652Z,71.31
2022-08-24T08:34:21.624Z,70.79
2022-08-24T08:35:21.615Z,71.77
2022-08-24T08:36:21.613Z,73.85
2022-08-24T08:37:21.621Z,70.43
2022-08-24T08:38:21.589Z,71.28
2022-08-24T08:39:21.604Z,71.34
2022-08-24T08:40:21.649Z,72.80
2022-08-24T08:41:26.531Z,72.41
2022-08-24T08:42:21.551Z,71.34
2022-08-24T08:43:21.542Z,71.64
2022-08-24T08:44:21.524Z,72.61
2022-08-24T08:45:21.523Z,71.60
2022-08-24T08:46:21.588Z,71.41
2022-08-24T08:47:21.498Z,72.80
2022-08-24T08:48:21.514Z,72.41
2022-08-24T08:49:21.481Z,72.02
2022-08-24T08:50:21.578Z,72.45
2022-08-24T08:51:21.512Z,71.47
2022-08-24T08:52:21.462Z,72.29
2022-08-24T08:53:21.441Z,71.02
2022-08-24T08:54:21.440Z,69.65
2022-08-24T08:55:21.446Z,70.40
2022-08-24T08:56:21.414Z,69.26
2022-08-24T08:57:21.407Z,71.31
2022-08-24T08:58:21.467Z,71.45
2022-08-24T08:59:21.394Z,69.59
2022-08-24T09:00:21.381Z,68.85
2022-08-24T09:01:21.432Z,68.36
2022-08-24T09:02:21.356Z,69.53
2022-08-24T09:03:21.348Z,70.12
2022-08-24T09:04:21.687Z,69.43
2022-08-24T09:05:21.331Z,68.46
2022-08-24T09:06:21.320Z,68.19
2022-08-24T09:07:21.312Z,70.28
2022-08-24T09:08:21.305Z,68.71
2022-08-24T09:09:21.289Z,69.07
2022-08-24T09:10:21.285Z,67.29
2022-08-24T09:11:21.285Z,67.29
2022-08-24T09:12:21.262Z,67.80
2022-08-24T09:13:21.273Z,68.26
2022-08-24T09:14:21.256Z,64.05
2022-08-24T09:15:21.236Z,63.04
2022-08-24T09:16:21.271Z,64.05
2022-08-24T09:17:21.322Z,64.08
2022-08-24T09:18:21.213Z,62.38
2022-08-24T09:19:21.271Z,62.06
2022-08-24T09:20:21.188Z,61.60
2022-08-24T09:21:21.189Z,63.37
2022-08-24T09:22:21.177Z,63.14
2022-08-24T09:23:21.171Z,63.53
2022-08-24T09:24:21.159Z,63.07
2022-08-24T09:25:21.824Z,63.04
2022-08-24T09:26:21.150Z,60.68
2022-08-24T09:27:21.138Z,60.58
2022-08-24T09:28:21.133Z,60.78
2022-08-24T09:29:21.114Z,63.98
2022-08-24T09:30:21.108Z,65.39
2022-08-24T09:31:21.213Z,65.58
2022-08-24T09:32:21.087Z,60.06
2022-08-24T09:33:21.083Z,60.65
2022-08-24T09:34:21.077Z,63.23
2022-08-24T09:35:26.693Z,63.20
2022-08-24T09:36:21.052Z,62.58
2022-08-24T09:37:21.052Z,61.90
2022-08-24T09:38:21.041Z,63.24
2022-08-24T09:39:21.035Z,63.27
2022-08-24T09:40:21.065Z,66.04
2022-08-24T09:41:21.017Z,60.03
2022-08-24T09:42:21.013Z,60.00
2022-08-24T09:43:21.023Z,61.10
2022-08-24T09:44:21.008Z,59.05
2022-08-24T09:45:20.993Z,60.64
2022-08-24T09:46:21.028Z,60.52
2022-08-24T09:47:20.977Z,58.87
2022-08-24T09:48:20.958Z,58.87
2022-08-24T09:49:20.951Z,59.37
2022-08-24T09:50:20.945Z,58.00
2022-08-24T09:51:20.940Z,62.87
2022-08-24T09:52:20.930Z,60.70
2022-08-24T09:53:20.922Z,58.96
2022-08-24T09:54:20.917Z,60.37
2022-08-24T09:55:20.904Z,57.12
2022-08-24T09:56:20.895Z,56.11
2022-08-24T09:57:20.906Z,56.31
2022-08-24T09:58:20.880Z,58.99
2022-08-24T09:59:20.877Z,58.01
2022-08-24T10:00:20.875Z,57.71
2022-08-24T10:01:20.925Z,57.81
2022-08-24T10:02:20.876Z,57.32
2022-08-24T10:03:20.869Z,57.03
2022-08-24T10:04:20.839Z,55.48
2022-08-24T10:05:20.894Z,55.20
2022-08-24T10:06:20.988Z,55.08
2022-08-24T10:07:20.817Z,56.23
2022-08-24T10:08:20.813Z,57.11
2022-08-24T10:09:24.275Z,55.32
2022-08-24T10:10:20.802Z,55.32
2022-08-24T10:11:20.791Z,55.51
2022-08-24T10:12:20.791Z,54.24
2022-08-24T10:13:20.774Z,55.71
2022-08-24T10:14:20.772Z,55.95
2022-08-24T10:15:20.762Z,57.81
2022-08-24T10:16:20.806Z,60.10
2022-08-24T10:17:20.754Z,57.67
2022-08-24T10:18:20.744Z,58.26
2022-08-24T10:19:20.743Z,56.52
2022-08-24T10:20:20.736Z,56.23
2022-08-24T10:21:20.727Z,57.67
2022-08-24T10:22:20.715Z,55.78
2022-08-24T10:23:20.713Z,58.16
2022-08-24T10:24:20.709Z,57.08
2022-08-24T10:25:20.701Z,56.20
2022-08-24T10:26:20.692Z,56.20
2022-08-24T10:27:20.687Z,56.10
2022-08-24T10:28:20.682Z,57.57
2022-08-24T10:29:20.670Z,57.11
2022-08-24T10:30:23.767Z,60.05
2022-08-24T10:31:20.679Z,58.61
2022-08-24T10:32:20.653Z,57.92
2022-08-24T10:33:20.648Z,55.15
2022-08-24T10:34:20.659Z,56.47
2022-08-24T10:35:20.636Z,58.65
2022-08-24T10:36:21.128Z,57.15
2022-08-24T10:37:20.621Z,57.57
2022-08-24T10:38:20.616Z,57.90
2022-08-24T10:39:20.613Z,57.86
2022-08-24T10:40:20.683Z,60.14
2022-08-24T10:41:20.623Z,56.43
2022-08-24T10:42:20.599Z,55.43
2022-08-24T10:43:23.953Z,54.54
2022-08-24T10:44:20.583Z,56.41
2022-08-24T10:45:20.593Z,54.05
2022-08-24T10:46:20.572Z,53.85
2022-08-24T10:47:20.583Z,52.72
2022-08-24T10:48:20.564Z,54.49
2022-08-24T10:49:20.560Z,54.17
2022-08-24T10:50:20.564Z,52.65
2022-08-24T10:51:20.551Z,57.46
2022-08-24T10:52:20.557Z,56.01
2022-08-24T10:53:20.536Z,54.44
2022-08-24T10:54:20.532Z,54.64
2022-08-24T10:55:20.530Z,53.75
2022-08-24T10:56:20.534Z,53.95
2022-08-24T10:57:20.522Z,52.67
2022-08-24T10:58:20.516Z,54.17
2022-08-24T10:59:20.553Z,55.06
2022-08-24T11:00:23.004Z,57.45
2022-08-24T11:01:20.584Z,55.35
2022-08-24T11:02:20.553Z,56.04
2022-08-24T11:03:20.499Z,56.41
2022-08-24T11:04:20.504Z,54.83
2022-08-24T11:05:20.506Z,55.30
2022-08-24T11:06:20.491Z,54.10
2022-08-24T11:07:20.495Z,55.05
2022-08-24T11:08:20.479Z,56.94
2022-08-24T11:09:20.486Z,54.52
2022-08-24T11:10:20.475Z,57.36
2022-08-24T11:11:20.493Z,55.00
2022-08-24T11:12:20.466Z,55.27
2022-08-24T11:13:20.468Z,55.96
2022-08-24T11:14:20.462Z,53.70
2022-08-24T11:15:20.460Z,54.66
2022-08-24T11:16:20.499Z,54.17
2022-08-24T11:17:20.453Z,58.71
2022-08-24T11:18:20.463Z,55.57
2022-08-24T11:19:20.457Z,55.15
2022-08-24T11:20:20.442Z,60.87
2022-08-24T11:21:20.473Z,57.04
2022-08-24T11:22:20.438Z,57.60
2022-08-24T11:23:20.443Z,54.73
2022-08-24T11:24:20.433Z,54.75
2022-08-24T11:25:20.452Z,57.08
2022-08-24T11:26:20.426Z,56.20
2022-08-24T11:27:20.426Z,57.57
2022-08-24T11:28:20.450Z,58.55
2022-08-24T11:29:20.416Z,56.20
2022-08-24T11:30:20.408Z,56.86
2022-08-24T11:31:20.494Z,57.67
2022-08-24T11:32:20.403Z,56.96
2022-08-24T11:33:20.398Z,57.25
2022-08-24T11:34:20.395Z,55.78
2022-08-24T11:35:20.407Z,59.01
2022-08-24T11:36:21.174Z,56.86
2022-08-24T11:37:23.558Z,53.75
2022-08-24T11:38:20.389Z,56.37
2022-08-24T11:39:20.387Z,59.21
2022-08-24T11:40:20.421Z,57.06
2022-08-24T11:41:20.377Z,57.15
2022-08-24T11:42:20.369Z,55.88
2022-08-24T11:43:20.374Z,57.25
2022-08-24T11:44:20.363Z,55.66
2022-08-24T11:45:20.362Z,57.12
2022-08-24T11:46:20.425Z,58.30
2022-08-24T11:47:20.358Z,55.66
2022-08-24T11:48:20.350Z,56.27
2022-08-24T11:49:20.347Z,57.81
2022-08-24T11:50:20.342Z,57.52
2022-08-24T11:51:20.342Z,60.55
2022-08-24T11:52:20.335Z,58.69
2022-08-24T11:53:20.346Z,55.56
2022-08-24T11:54:20.327Z,55.82
2022-08-24T11:55:24.200Z,56.81
2022-08-24T11:56:21.595Z,56.90
2022-08-24T11:57:20.320Z,57.88
2022-08-24T11:58:20.328Z,58.40
2022-08-24T11:59:20.338Z,57.59
2022-08-24T12:00:20.331Z,57.71
2022-08-24T12:01:20.306Z,59.58
2022-08-24T12:02:20.437Z,59.11
2022-08-24T12:03:20.407Z,55.98
2022-08-24T12:04:20.357Z,55.58
2022-08-24T12:05:20.515Z,55.00
2022-08-24T12:06:20.285Z,54.68
2022-08-24T12:07:20.278Z,56.83
2022-08-24T12:08:20.273Z,56.24
2022-08-24T12:09:20.272Z,55.36
2022-08-24T12:10:20.269Z,57.12
2022-08-24T12:11:20.269Z,55.56
2022-08-24T12:12:20.262Z,57.84
2022-08-24T12:13:20.257Z,58.43
2022-08-24T12:14:20.258Z,56.07
2022-08-24T12:16:20.298Z,54.60
2022-08-24T12:17:20.248Z,54.90
2022-08-24T12:18:20.245Z,57.84
2022-08-24T12:19:20.239Z,57.84
2022-08-24T12:20:20.234Z,56.86
2022-08-24T12:21:20.238Z,54.80
2022-08-24T12:22:20.248Z,58.23
2022-08-24T12:23:20.224Z,58.14
2022-08-24T12:24:20.221Z,56.27
2022-08-24T12:25:20.220Z,58.33
2022-08-24T12:26:20.230Z,59.24
2022-08-24T12:27:20.213Z,57.67
2022-08-24T12:28:20.562Z,57.54
2022-08-24T12:29:20.269Z,59.11
2022-08-24T12:30:20.212Z,56.27
2022-08-24T12:31:20.253Z,58.06
2022-08-24T12:32:20.202Z,55.81
2022-08-24T12:33:20.186Z,57.67
2022-08-24T12:34:20.187Z,56.98
2022-08-24T12:35:20.200Z,57.38
2022-08-24T12:36:20.180Z,54.60
2022-08-24T12:37:20.174Z,56.17
2022-08-24T12:38:20.179Z,56.63
2022-08-24T12:39:20.176Z,57.71
2022-08-24T12:40:20.205Z,62.94
2022-08-24T12:41:20.181Z,60.68
2022-08-24T12:42:20.164Z,57.77
2022-08-24T12:43:20.166Z,56.27
2022-08-24T12:44:20.151Z,58.55
2022-08-24T12:45:20.197Z,57.74
2022-08-24T12:46:20.160Z,56.27
2022-08-24T12:47:20.139Z,57.84
2022-08-24T12:48:20.170Z,58.23
2022-08-24T12:49:20.133Z,56.07
2022-08-24T12:50:24.594Z,57.54
2022-08-24T12:51:20.126Z,57.35
2022-08-24T12:52:20.123Z,57.22
2022-08-24T12:53:20.121Z,57.00
2022-08-24T12:54:20.119Z,56.12
2022-08-24T12:55:20.111Z,57.00
2022-08-24T12:56:20.123Z,55.85